空港情報

日本の空港の気象及び、管制情報です。
気象情報はより詳細な情報が取得できる「AVIATION WEATER CENTER」 から取得しているため、VATSIMの気象情報と若干のタイムラグが生じることがあります。

VRCのフィールド設定用空港一覧はこちらをご覧ください。

RJCG Sapporo Control

RJCW / Wakkanai

NO RADAR

RADIO

08/26 2200x45

民間 civil

過去5時間に発表されたMETARがありません。

RJER / Rishiri

NO RADAR

REMOTE

25/07 1800x45

民間 civil

過去5時間に発表されたMETARがありません。

RJEB / Monbetsu

NO RADAR

REMOTE

32/14 2000x45

民間 civil

過去5時間に発表されたMETARがありません。

RJCM / Memanbetsu
VMC

NO RADAR

TOWER

36/18 2500x45

民間 civil

9999

000@2KT

29.59

RJCM 152300Z VRB02KT 9999 FEW020 BKN050 M04/M10 Q1002

RJEC / Asahikawa
VMC

NO RADAR

TOWER

34/16 2500x60

民間 civil

9999

250@12KT

29.62

RJEC 152300Z 25012KT 9999 FEW010 SCT025 BKN040 M05/M09 Q1003

RJCN / Nakashibetsu

NO RADAR

RADIO

08/26 2000x45

民間 civil

過去5時間に発表されたMETARがありません。

RJCK / Kushiro
VMC

NO RADAR

TOWER

17/35 2500x45

民間 civil

9999

270@12KT

29.62

RJCK 152300Z 27012KT 230V300 9999 FEW020 M02/M09 Q1003

RJCO / Sapporo
VMC

RJCO_APP

TOWER

14/32 1500x30

共用 dual

7000

300@14KT

29.76

RJCO 152300Z 30014KT 7000 -SHSN FEW005 SCT020 BKN040 M04/M07 Q1008

RJCJ / Chitose

RJCC_APP

TOWER

36R/18L 3000x60
36L/18R 2700x45

自衛隊 military

過去5時間に発表されたMETARがありません。

RJCC / NewChitose
VMC

RJCC_APP

TOWER

01L/19R 3000x60
01R/19L 3000x60

民間 civil

5000

340@4KT

29.73

RJCC 152300Z 34004KT 5000 R01L/P2000N R01R/P2000N -SHSN FEW010 SCT015 BKN040 M03/M07 Q1007 RMK 1ST010 4ST015 6CU040 A2974

RJCB / Obihiro
VMC

NO RADAR

TOWER

35/17 2500x45

民間 civil

9999

000@1KT

29.62

RJCB 152300Z VRB01KT 9999 FEW020 BKN060 M06/M09 Q1003

RJEO / Okushiri

NO RADAR

REMOTE

12/30 1500x45

民間 civil

過去5時間に発表されたMETARがありません。

RJCH / Hakodate
VMC

RJCH_APP

TOWER

12/30 3000x45

民間 civil

7000

270@13KT

29.82

RJCH 152300Z 27013KT 7000 -SHSN FEW005 SCT025 BKN030 M03/M07 Q1010

RJSA / Aomori
IMC

NO RADAR

TOWER

24/06 3000x60

民間 civil

3000

250@14KT

29.82

RJSA 152300Z 25014KT 3000 -SHSN FEW003 SCT010 BKN020 M04/M07 Q1010

RJSO / Ominato
VMC

RJSM_APP

TOWER

04/22 600x45

自衛隊 military

5000

270@9KT

29.79

RJSO 152147Z 27009KT 230V310 5000 -SHSN FEW007 SCT015 BKN030 M01/M06 Q1009 RMK 2ST007 3CU015 7CU030 A2980

RJSM / Misawa
VMC

RJSM_APP

TOWER

10/28 3050x45

共用 dual

8000

280@21KT

29.82

RJSM 152300Z 28021KT 8000 -SHSN FEW015 BKN030 M02/M08 Q1010

RJSH / Hachinohe
VMC

RJSM_APP

TOWER

25/07 2250x45

自衛隊 military

5000

290@12KT

29.79

RJSH 152236Z 29012KT 5000 -SHSN FEW010 SCT020 BKN040 M01/M03 Q1009 RMK 1ST010 4CU020 7CU040 A2982

RJSK / Akita
VMC

NO RADAR

TOWER

10/28 2500x60

民間 civil

6000

310@13KT

29.91

RJSK 152300Z 31013KT 280V340 6000 -SHSN FEW007 SCT015 BKN025 M01/M04 Q1013

RJSI / Hanamaki
VMC

NO RADAR

RADIO

20/02 2500x45

民間 civil

6000

300@5KT

29.85

RJSI 152300Z 30005KT 240V360 6000 -SHSN FEW010 SCT020 BKN030 M01/M05 Q1011

RJSR / Odate-Noshiro
IMC

NO RADAR

REMOTE

11/29 2000x45

民間 civil

0800

280@13G24KT

29.88

RJSR 152300Z 28013G24KT 0800 R11/0450VP2000D SHSN FEW001 SCT003 BKN010 M02/M02 Q1012

RJTG Tokyo Control

RJSY / Shonai
VMC

NO RADAR

RADIO

09/27 2000x45

民間 civil

9999

290@18KT

29.97

RJSY 152300Z 29018KT 260V330 9999 VCSH FEW030 SCT040 BKN050 02/M06 Q1015

RJSC / Yamagata
IMC

NO RADAR

RADIO

01/19 2000x45

民間 civil

4000

300@3KT

29.91

RJSC 152300Z 30003KT 170V350 4000 -SHSN FEW002 SCT006 BKN010 00/M01 Q1013

RJST / Matsushima

RJSS_APP

TOWER

07/25 2071x46
15/33 1500x46

自衛隊 military

過去5時間に発表されたMETARがありません。

RJSS / Sendai
VMC

RJSS_APP

TOWER

27/09 3000x45
12/30 1200x45

民間 civil

9999

300@15KT

29.85

RJSS 152300Z 30015KT 9999 VCSH FEW020 04/M03 Q1011

RJSD / Sado

NO RADAR

REMOTE

10/28 890x25

民間 civil

過去5時間に発表されたMETARがありません。

RJSN / Niigata
VMC

RJSN_APP

TOWER

10/28 2500x45
04/22 1314x45

民間 civil

6000

310@22KT

30.03

RJSN 152300Z 31022KT 6000 -SHSN FEW015 SCT020 BKN030 03/M02 Q1017

RJSF / Fukushima
VMC

NO RADAR

RADIO

01/19 2500x60

民間 civil

9999

320@15G25KT

29.85

RJSF 152300Z 32015G25KT 9999 FEW020 02/M04 Q1011

RJAH / Ibaraki/Hyakuri
VMC

RJAH_APP

TOWER

03L/21R 2700x45
03R/21L 2700x45

共用 dual

9999

030@3KT

29.85

RJAH 152300Z 03003KT 9999 FEW030 M00/M02 Q1011

RJTT / Tokyo
VMC

RJTT_APP

TOWER

34LR/16RL 3000x60
04/22&05/23 2500x60

民間 civil

9999

350@12KT

29.85

RJTT 152300Z 35012KT 9999 FEW020 08/00 Q1011 TEMPO 34020G30KT RMK 1CU020 A2987

RJAA / Narita
VMC

RJTT_APP

TOWER

34L/16R 4000x60
34R/16L 2500x60

民間 civil

9000

330@5KT

29.85

RJAA 152300Z 33005KT 9000 FEW030 02/00 Q1011 BECMG FM0030 36015KT RMK 1CU030 A2985

RJTL / Shimofusa

RJTT_APP

TOWER

19/01 2250x45

自衛隊 military

過去5時間に発表されたMETARがありません。

RJTE / Tateyama
VMC

RJTT_APP

TOWER

09/27 300x45

自衛隊 military

9999

350@11KT

29.79

RJTE 152145Z 35011KT 300V020 9999 FEW025 11/06 Q1009 RMK 1CU025 A2981

RJTO / Oshima
VMC

NO RADAR

RADIO

03/21 1800x45

民間 civil

9999

240@8KT

29.82

RJTO 152300Z 24008KT 190V290 9999 FEW030 11/03 Q1010

RJTK / Kisarazu

NO RADAR

TOWER

02/20 1830x45

自衛隊 military

過去5時間に発表されたMETARがありません。

RJAN / Niijima

NO RADAR

REMOTE

11/29 800x25

自衛隊 military

過去5時間に発表されたMETARがありません。

RJAZ / Kozushima

NO RADAR

REMOTE

11/29 800x25

民間 civil

過去5時間に発表されたMETARがありません。

RJTH / Hachijojima

NO RADAR

RADIO

26/08 2000x45

民間 civil

過去5時間に発表されたMETARがありません。

RJTF / Chofu

NO RADAR

Flight Service

35/17 800x30

民間 civil

過去5時間に発表されたMETARがありません。

RJTQ / Miyake

NO RADAR

REMOTE

02/20 1200x30

民間 civil

過去5時間に発表されたMETARがありません。

RJTC / Tachikawa

NO RADAR

TOWER

01/19 900x45

自衛隊 military

過去5時間に発表されたMETARがありません。

RJTA / Atsugi

NO RADAR

TOWER

01/19 2438x45

自衛隊 military

過去5時間に発表されたMETARがありません。

RJTU / Utsunomiya

RJTY_APP

TOWER

01/19 1700x45

自衛隊 military

過去5時間に発表されたMETARがありません。

RJTJ / Iruma

RJTY_APP

TOWER

17/35 2000x45

自衛隊 military

過去5時間に発表されたMETARがありません。

RJTY / Yokota
VMC

RJTY_APP

TOWER

18/36 3353x60

自衛隊 military

9999

350@7KT

29.89

RJTY 152256Z AUTO 35007KT 10SM CLR 02/M01 A2989 RMK AO2 SLP133 T00211013 FZRANO $

RJAF / Matsumoto

NO RADAR

RADIO

18/36 2000x45

民間 civil

過去5時間に発表されたMETARがありません。

RJNS / Shizuoka
VMC

NO RADAR

RADIO

30/12 2500x60

民間 civil

9999

240@16KT

29.82

RJNS 152300Z 24016KT 9999 FEW020 06/02 Q1010

RJNY / Yaizu-Shizuhama
VMC

NO RADAR

TOWER

27/09 1500x45

自衛隊 military

9999

270@17G27KT

29.79

RJNY 152233Z 27017G27KT 9999 FEW020 07/02 Q1009 RMK 1CU020 A2982

RJNH / Hamamatsu

RJNH_APP

TOWER

09/27 2550x60

自衛隊 military

過去5時間に発表されたMETARがありません。

RJGG / Chubu
VMC

RJGG_APP

TOWER

36/18 3500x60

民間 civil

9999

320@23KT

29.97

RJGG 152300Z 32023KT 9999 FEW020 BKN040 08/03 Q1015 NOSIG

RJNA / Nagoya

RJGG_APP

TOWER

34/16 2740x45

民間 civil

過去5時間に発表されたMETARがありません。

RJNG / Gifu
VMC

RJGG_APP

TOWER

28/10 2710x46

自衛隊 military

7000

290@3KT

29.94

RJNG 152125Z 29003KT 7000 FEW020 SCT060 04/03 Q1014 RMK 1CU020 4SC060 A2996

RJOE / Akeno

RJOE_APP

TOWER

13/31 500x30
04/22 500x30

自衛隊 military

過去5時間に発表されたMETARがありません。

RJNK / Komatsu
IMC

RJNK_APP

TOWER

06/24 2700x45

共用 dual

2500

040@14KT

30.09

RJNK 152300Z 04014KT 2500 -SHSNRA SCT005 BKN008 BKN010 01/M00 Q1019

RJNW / Noto
VMC

NO RADAR

RADIO

25/07 2000x45

民間 civil

5000

330@4KT

30.03

RJNW 152300Z 33004KT 260V040 5000 BR FEW000 SCT010 BKN030 00/M03 Q1017

RJNT / Toyama
VMC

NO RADAR

TOWER

20/02 2000x45

民間 civil

5000

000@2KT

30.06

RJNT 152300Z VRB02KT 5000 -SHRASN BR FEW002 SCT005 BKN010 01/01 Q1018

RJNF / Fukui

NO RADAR

REMOTE

18/36 1200x30

民間 civil

過去5時間に発表されたMETARがありません。

RJBD / Nanki-Shirahama
VMC

NO RADAR

RADIO

15/33 2000x45

民間 civil

9000

340@10KT

30.00

RJBD 152300Z 34010KT 9000 FEW040 SCT060 08/01 Q1016

RJOY / Yao
VMC

RJBB_APP

TOWER

27/09 1490x45
13/31 1200x30

民間 civil

9999

050@2KT

30.03

RJOY 152300Z 05002KT 9999 FEW025 SCT045 BKN060 06/02 Q1017

RJOO / Osaka
VMC

RJBB_APP

TOWER

32L/14R 3000x60
32R/14L 1830x45

民間 civil

9999

300@3KT

30.03

RJOO 152300Z 30003KT 240V340 9999 FEW025 BKN080 05/02 Q1017 RMK 1CU025 5AC080 A3005

RJOB / Okayama
VMC

RJBB_APP

TOWER

07/25 3000x45

民間 civil

9999

300@6KT

30.03

RJOB 152300Z 30006KT 260V360 9999 FEW015 SCT070 04/M00 Q1017

RJBB / Kansai
VMC

RJBB_APP

TOWER

06R/24L 3500x60
06L/24R 4000x60

民間 civil

9000

340@14KT

30.03

RJBB 152300Z 34014KT 9000 FEW020 SCT080 08/02 Q1017 NOSIG

RJBE / Kobe
VMC

RJBB_APP

TOWER

09/27 2500x60

民間 civil

9999

350@4KT

30.03

RJBE 152300Z 35004KT 320V080 9999 FEW025 SCT050 BKN070 07/00 Q1017

RJBT / Tajima

NO RADAR

REMOTE

01/19 1200x30

民間 civil

過去5時間に発表されたMETARがありません。

RJOR / Tottori
VMC

NO RADAR

RADIO

10/28 2000x45

民間 civil

9999

300@12KT

30.09

RJOR 152300Z 30012KT 9999 -SHRA FEW010 SCT020 BKN030 06/01 Q1019

RJNO / Oki

NO RADAR

REMOTE

07/25 2000x45

民間 civil

過去5時間に発表されたMETARがありません。

RJOH / Miho
VMC

RJOH_APP

TOWER

25/07 2500x45

共用 dual

9999

310@4KT

30.12

RJOH 152300Z 31004KT 9999 -SHGSRA FEW015 SCT020 BKN030TCU 05/M01 Q1020

RJOC / Izumo
VMC

RJOH_APP

RADIO

07/25 2000x45

共用 dual

9999

330@14KT

30.09

RJOC 152300Z 33014KT 9999 FEW020 SCT030 BKN060 06/M01 Q1019

RJDG Fukuoka Control

RJOT / Takamatsu
VMC

RJBB_APP

TOWER

26/08 2500x60

民間 civil

9999

270@5KT

30.06

RJOT 152300Z 27005KT 250V310 9999 FEW020 BKN060 05/02 Q1018

RJOK / Kochi
VMC

RJBB_APP

TOWER

32/14 2500x45

民間 civil

9999

360@10KT

30.03

RJOK 152300Z 36010KT 9999 FEW035 BKN040 08/01 Q1017

RJOS / Tokushima
VMC

RJOS_APP

TOWER

29/11 2500x45

共用 dual

9999

340@12KT

30.03

RJOS 152300Z 34012KT 9999 FEW030 SCT060 BKN080 08/01 Q1017

RJOA / Hiroshima
VMC

RJOA_APP

TOWER

10/28 3000x60

民間 civil

9999

320@5KT

30.06

RJOA 152300Z 32005KT 290V360 9999 -SHRA FEW015 SCT025 BKN040 03/M01 Q1018

RJBH / Hiroshimanishi

NO RADAR

Flight Service

04/22 1800x45

民間 civil

過去5時間に発表されたMETARがありません。

RJOI / Iwakuni
VMC

RJOI_APP

TOWER

02/20 2440x60

共用 dual

9999

270@7KT

30.12

RJOI 152255Z 27007KT 9999 SCT030 BKN045 BKN180 06/00 A3012 RMK SLP199 T00610000

RJOM / Matsuyama
VMC

RJOI_APP

TOWER

14/32 2500x45

民間 civil

9999

350@13KT

30.09

RJOM 152300Z 35013KT 9999 FEW025 SCT035 BKN045 08/03 Q1019

RJOZ / Ozuki
VMC

RJFZ_APP

TOWER

35/17 1201x61
12/30 899x46

自衛隊 military

9999

330@15KT

30.09

RJOZ 151942Z 33015KT 290V360 9999 -SHRA FEW015 SCT030 BKN040 06/02 Q1019 RMK 1CU015 4CU030 5CU040 A3011

RJOF / Hofu
VMC

RJFZ_APP

TOWER

30/12 1180x60
01/19 1480x45

自衛隊 military

9999

290@4KT

30.12

RJOF 152150Z 29004KT 9999 FEW020 BKN030 BKN040 04/01 Q1020 RMK 1CU020 7CU030 6CU040 A3013

RJDC / Yamaguchi-Ube
VMC

RJFZ_APP

RADIO

07/25 2500x45

民間 civil

9999

310@4KT

30.15

RJDC 152300Z 31004KT 250V360 9999 FEW025 BKN045 04/02 Q1021

RJFR / Kitakyushu
VMC

RJFZ_APP

TOWER

18/36 2500x60

民間 civil

9999

360@7KT

30.15

RJFR 152300Z 36007KT 9999 -SHRA FEW010 BKN020 BKN025 04/01 Q1021

RJFZ / Tsuiki

RJFZ_APP

TOWER

25/07 2399x46

自衛隊 military

過去5時間に発表されたMETARがありません。

RJOW / Iwami
VMC

NO RADAR

REMOTE

11/29 2000x45

民間 civil

9999

300@11KT

30.12

RJOW 152300Z 30011KT 260V320 9999 FEW025 SCT030 BKN040 06/M01 Q1020

RJDT / Tsushima
VMC

NO RADAR

REMOTE

32/14 1900x45

民間 civil

9999

300@8KT

30.21

RJDT 152300Z 30008KT 240V350 9999 FEW030 01/M07 Q1023

RJFF / Fukuoka
VMC

RJFF_APP

TOWER

16/34 2800x60

民間 civil

9999

330@10KT

30.18

RJFF 152300Z 33010KT 9999 -SHRA FEW020 SCT030 BKN040 06/M01 Q1022 NOSIG RMK 1CU020 3CU030 5CU040 A3018

RJFS / Saga
VMC

RJFF_APP

RADIO

29/11 2000x45

民間 civil

9999

260@10KT

30.18

RJFS 152300Z 26010KT 9999 FEW030 SCT040 BKN045 05/M01 Q1022

RJFA / Ashiya

RJFF_APP

TOWER

12/30 1640x46

自衛隊 military

過去5時間に発表されたMETARがありません。

RJDB / Iki

RJFF_APP

REMOTE

20/02 1200x30

民間 civil

過去5時間に発表されたMETARがありません。

RJFO / Oita
VMC

RJFO_APP

TOWER

01/19 3000x45

民間 civil

9999

340@7KT

30.15

RJFO 152300Z 34007KT 9999 -SHRA FEW015 BKN025 BKN035 06/02 Q1021

RJFU / Nagasaki
VMC

RJFU_APP

TOWER

32/14 3000x60

民間 civil

9999

330@12KT

30.18

RJFU 152300Z 33012KT 9999 FEW030 BKN040 06/M01 Q1022

RJDU / Omura

RJFU_APP

TOWER

18/36 1200x30

自衛隊 military

過去5時間に発表されたMETARがありません。

RJFE / Fukue
VMC

NO RADAR

RADIO

03/21 2000x45

民間 civil

9999

350@12KT

30.21

RJFE 152300Z 35012KT 9999 FEW025 SCT030 BKN035 04/M02 Q1023

RJDO / Ojika

NO RADAR

REMOTE

03/21 800x30

民間 civil

過去5時間に発表されたMETARがありません。

RJDK / Kamigoto

NO RADAR

REMOTE

17/35 800x30

民間 civil

過去5時間に発表されたMETARがありません。

RJDA / Amakusa

NO RADAR

Flight Service

31/13 1000x30

民間 civil

過去5時間に発表されたMETARがありません。

RJFT / Kumamoto
VMC

RJFT_APP

TOWER

07/25 3000x45

民間 civil

9999

340@4KT

30.15

RJFT 152300Z 34004KT 300V050 9999 FEW025 BKN040 03/M01 Q1021

RJFN / Nyutabaru

RJFM_APP

TOWER

28/10 2701x46

自衛隊 military

過去5時間に発表されたMETARがありません。

RJFM / Miyazaki
VMC

RJFM_APP

TOWER

27/09 2500x45

民間 civil

9999

270@13KT

30.09

RJFM 152300Z 27013KT 9999 FEW030 SCT150 BKN/// 07/M00 Q1019

RJFK / Kagoshima
VMC

RJFK_APP

TOWER

34/16 3000x45

民間 civil

9999

320@13KT

30.12

RJFK 152300Z 32013KT 9999 FEW020 BKN030 BKN150 05/M01 Q1020 RMK 1CU020 6CU030 7AC150 A3012 VOLCANIC ASH CLOUD S

RJFY / Kanoya

RJFY_APP

TOWER

26L/08R 2250x45
26R/08L 1200x40

自衛隊 military

過去5時間に発表されたMETARがありません。

RJFG / Tanegashima

NO RADAR

RADIO

31/13 2000x45

民間 civil

過去5時間に発表されたMETARがありません。

RJFC / Yakushima

NO RADAR

REMOTE

14/32 1500x45

民間 civil

過去5時間に発表されたMETARがありません。

RJBG Kobe Control

ROAH / Naha
VMC

ROAH_APP

TOWER

36/18 3000x45

共用 dual

9999

040@8KT

30.15

ROAH 152300Z 04008KT 9999 FEW020 BKN040 19/13 Q1021 RMK 1CU020 6SC040 A3015

RORA / Aguni

ROAH_APP

REMOTE

01/19 800x25

民間 civil

過去5時間に発表されたMETARがありません。

ROKJ / Kumejima

ROAH_APP

REMOTE

03/21 2000x45

民間 civil

過去5時間に発表されたMETARがありません。

RODN / Kadena
VMC

ROAH_APP

TOWER

05L/23R 3688x91
05R/23L 3688x61

自衛隊 military

9999

040@9KT

30.16

RODN 152256Z AUTO 04009KT 10SM BKN022 OVC033 17/13 A3016 RMK AO2 SLP220 T01740133 $

ROTM / Futenma
VMC

ROAH_APP

TOWER

06/24 2740x45

自衛隊 military

9999

030@6KT

30.17

ROTM 152256Z 03006KT 9999 SCT020 OVC040 17/14 A3017 RMK SLP202 STNPR29860 T01720139

RORS / Shimojishima
VMC

RORS_APP

TOWER

17/35 3000x60

民間 civil

9999

050@9KT

30.09

RORS 152300Z 05009KT 9999 -RA FEW010 SCT038 BKN050 19/18 Q1019

ROMY / Miyako
VMC

RORS_APP

TOWER

04/22 2000x45

民間 civil

9999

030@6KT

30.09

ROMY 152300Z 03006KT 9999 -SHRA FEW006 SCT010 BKN015 19/18 Q1019

ROIG / New Ishigaki
VMC

RORS_APP

TOWER

22/04 2000x45

民間 civil

5000

020@13KT

30.09

ROIG 152300Z 02013KT 5000 R04/1100VP1800U SHRA FEW004 SCT012 BKN020 19/19 Q1019

RORT / Tarama

RORS_APP

REMOTE

36/18 1500x45

民間 civil

過去5時間に発表されたMETARがありません。

RJKA / Amami
VMC

NO RADAR

RADIO

03/21 2000x45

民間 civil

9999

330@7KT

30.15

RJKA 152300Z 33007KT 300V010 9999 -SHRA FEW030 BKN035 BKN040 14/11 Q1021

RJKI / Kikai

NO RADAR

REMOTE

07/25 1200x30

民間 civil

過去5時間に発表されたMETARがありません。

RJKN / Tokunoshima

NO RADAR

REMOTE

19/01 2000x45

民間 civil

過去5時間に発表されたMETARがありません。

RJKB / Okierabu

NO RADAR

REMOTE

04/22 1350x45

民間 civil

過去5時間に発表されたMETARがありません。

RORY / Yoron
VMC

NO RADAR

REMOTE

32/14 1320x30

民間 civil

9999

010@15KT

30.15

RORY 152300Z AUTO 01015KT 9999 SCT017 BKN022 BKN031 17/13 Q1021

RORK / Kitadaito

NO RADAR

REMOTE

03/21 1500x45

民間 civil

過去5時間に発表されたMETARがありません。

ROMD / Minami-daito

NO RADAR

REMOTE

02/20 1500x45

民間 civil

過去5時間に発表されたMETARがありません。

ROYN / Yonaguni
IMC

NO RADAR

REMOTE

26/08 2000x45

民間 civil

2500

030@26KT

30.12

ROYN 152300Z AUTO 03026KT 2500 -RA BR SCT009 BKN010 OVC025 19/18 Q1020

RORH / Hateruma

NO RADAR

REMOTE

02/20 800x25

民間 civil

過去5時間に発表されたMETARがありません。

ROKR / Kerama

NO RADAR

REMOTE

02/20 800x25

民間 civil

過去5時間に発表されたMETARがありません。